sensor_id;sensor_type;location;lat;lon;timestamp;temperature;humidity
34522;DHT22;25561;48.888;8.736;2022-07-29T05:33:35;22.20;99.90
34522;DHT22;25561;48.888;8.736;2022-07-29T05:36:37;22.10;99.90
34522;DHT22;25561;48.888;8.736;2022-07-29T05:39:40;22.40;99.90
34522;DHT22;25561;48.888;8.736;2022-07-29T05:42:49;22.20;99.90
34522;DHT22;25561;48.888;8.736;2022-07-29T05:45:51;22.90;99.90
34522;DHT22;25561;48.888;8.736;2022-07-29T05:48:53;23.70;99.90
34522;DHT22;25561;48.888;8.736;2022-07-29T05:51:55;23.50;99.90
34522;DHT22;25561;48.888;8.736;2022-07-29T05:54:57;24.20;99.90
34522;DHT22;25561;48.888;8.736;2022-07-29T05:57:59;25.10;99.90
34522;DHT22;25561;48.888;8.736;2022-07-29T06:01:00;25.80;99.90
34522;DHT22;25561;48.888;8.736;2022-07-29T06:04:02;25.60;99.90
34522;DHT22;25561;48.888;8.736;2022-07-29T06:07:04;26.00;99.90
34522;DHT22;25561;48.888;8.736;2022-07-29T06:10:07;25.40;99.90
34522;DHT22;25561;48.888;8.736;2022-07-29T06:13:09;25.30;99.90
34522;DHT22;25561;48.888;8.736;2022-07-29T06:50:06;26.20;99.90
34522;DHT22;25561;48.888;8.736;2022-07-29T06:53:08;25.80;99.90
34522;DHT22;25561;48.888;8.736;2022-07-29T06:56:10;25.20;99.90
34522;DHT22;25561;48.888;8.736;2022-07-29T06:59:14;26.70;99.90
34522;DHT22;25561;48.888;8.736;2022-07-29T07:02:15;26.10;99.90
34522;DHT22;25561;48.888;8.736;2022-07-29T07:05:17;25.80;99.90
34522;DHT22;25561;48.888;8.736;2022-07-29T07:08:20;26.10;99.90
34522;DHT22;25561;48.888;8.736;2022-07-29T07:11:22;27.10;99.90
34522;DHT22;25561;48.888;8.736;2022-07-29T07:14:24;28.60;99.90
34522;DHT22;25561;48.888;8.736;2022-07-29T07:17:28;29.90;99.90
34522;DHT22;25561;48.888;8.736;2022-07-29T07:20:30;30.10;99.90
34522;DHT22;25561;48.888;8.736;2022-07-29T07:23:32;30.00;99.90
34522;DHT22;25561;48.888;8.736;2022-07-29T07:26:34;30.10;99.90
34522;DHT22;25561;48.888;8.736;2022-07-29T07:29:35;31.20;99.90
34522;DHT22;25561;48.888;8.736;2022-07-29T07:32:37;30.00;99.90
34522;DHT22;25561;48.888;8.736;2022-07-29T07:35:41;28.60;99.90
34522;DHT22;25561;48.888;8.736;2022-07-29T07:38:43;28.00;99.90
34522;DHT22;25561;48.888;8.736;2022-07-29T07:41:44;27.40;99.90
34522;DHT22;25561;48.888;8.736;2022-07-29T07:44:46;28.00;99.90
34522;DHT22;25561;48.888;8.736;2022-07-29T07:48:09;28.80;99.90
34522;DHT22;25561;48.888;8.736;2022-07-29T07:51:11;28.80;99.90
34522;DHT22;25561;48.888;8.736;2022-07-29T07:54:13;29.50;99.90
34522;DHT22;25561;48.888;8.736;2022-07-29T07:57:15;29.20;99.90
34522;DHT22;25561;48.888;8.736;2022-07-29T08:00:17;31.00;99.90
34522;DHT22;25561;48.888;8.736;2022-07-29T08:03:23;31.80;99.90
34522;DHT22;25561;48.888;8.736;2022-07-29T08:06:24;30.30;99.90
34522;DHT22;25561;48.888;8.736;2022-07-29T08:09:27;29.30;99.90
34522;DHT22;25561;48.888;8.736;2022-07-29T08:12:31;27.80;99.90
34522;DHT22;25561;48.888;8.736;2022-07-29T08:15:33;28.10;99.90
34522;DHT22;25561;48.888;8.736;2022-07-29T08:18:35;28.40;99.90
34522;DHT22;25561;48.888;8.736;2022-07-29T08:21:37;28.50;99.90
34522;DHT22;25561;48.888;8.736;2022-07-29T08:24:39;29.50;99.90
34522;DHT22;25561;48.888;8.736;2022-07-29T08:27:44;30.80;99.90
34522;DHT22;25561;48.888;8.736;2022-07-29T08:30:46;32.00;99.90
34522;DHT22;25561;48.888;8.736;2022-07-29T08:33:47;33.30;95.90
34522;DHT22;25561;48.888;8.736;2022-07-29T08:36:49;32.70;93.30
34522;DHT22;25561;48.888;8.736;2022-07-29T08:39:52;33.20;92.40
34522;DHT22;25561;48.888;8.736;2022-07-29T08:42:54;34.40;87.80
34522;DHT22;25561;48.888;8.736;2022-07-29T08:45:56;34.30;85.10
34522;DHT22;25561;48.888;8.736;2022-07-29T08:48:58;33.50;85.50
34522;DHT22;25561;48.888;8.736;2022-07-29T08:52:00;33.60;84.90
34522;DHT22;25561;48.888;8.736;2022-07-29T08:55:03;31.60;86.50
34522;DHT22;25561;48.888;8.736;2022-07-29T08:58:06;33.10;88.10
34522;DHT22;25561;48.888;8.736;2022-07-29T09:01:08;32.90;84.90
34522;DHT22;25561;48.888;8.736;2022-07-29T09:04:13;34.10;81.60
34522;DHT22;25561;48.888;8.736;2022-07-29T09:07:17;34.00;80.70
34522;DHT22;25561;48.888;8.736;2022-07-29T09:10:20;33.20;82.80
34522;DHT22;25561;48.888;8.736;2022-07-29T09:13:22;33.90;81.40
34522;DHT22;25561;48.888;8.736;2022-07-29T09:16:24;34.60;83.30
34522;DHT22;25561;48.888;8.736;2022-07-29T09:19:46;34.70;77.40
34522;DHT22;25561;48.888;8.736;2022-07-29T09:22:48;34.10;77.20
34522;DHT22;25561;48.888;8.736;2022-07-29T09:25:52;33.00;78.10
34522;DHT22;25561;48.888;8.736;2022-07-29T09:28:54;32.50;79.90
34522;DHT22;25561;48.888;8.736;2022-07-29T09:31:55;33.20;78.70
34522;DHT22;25561;48.888;8.736;2022-07-29T09:35:22;32.30;81.90
34522;DHT22;25561;48.888;8.736;2022-07-29T09:38:24;33.40;77.40
34522;DHT22;25561;48.888;8.736;2022-07-29T09:41:26;34.70;77.30
34522;DHT22;25561;48.888;8.736;2022-07-29T09:44:41;34.80;72.80
34522;DHT22;25561;48.888;8.736;2022-07-29T09:47:45;33.60;75.90
34522;DHT22;25561;48.888;8.736;2022-07-29T09:50:49;33.50;75.10
34522;DHT22;25561;48.888;8.736;2022-07-29T09:53:51;34.20;75.00
34522;DHT22;25561;48.888;8.736;2022-07-29T09:56:55;33.20;75.50
34522;DHT22;25561;48.888;8.736;2022-07-29T10:00:03;33.60;74.40
34522;DHT22;25561;48.888;8.736;2022-07-29T10:03:05;34.30;73.20
34522;DHT22;25561;48.888;8.736;2022-07-29T10:06:08;35.40;70.10
34522;DHT22;25561;48.888;8.736;2022-07-29T10:09:11;36.50;68.00
34522;DHT22;25561;48.888;8.736;2022-07-29T10:12:13;36.40;67.80
34522;DHT22;25561;48.888;8.736;2022-07-29T10:15:16;35.90;65.60
34522;DHT22;25561;48.888;8.736;2022-07-29T10:18:18;35.70;64.60
34522;DHT22;25561;48.888;8.736;2022-07-29T10:21:21;33.00;68.90
34522;DHT22;25561;48.888;8.736;2022-07-29T10:24:38;31.70;73.20
34522;DHT22;25561;48.888;8.736;2022-07-29T10:27:40;32.70;74.50
34522;DHT22;25561;48.888;8.736;2022-07-29T10:30:42;33.50;70.50
34522;DHT22;25561;48.888;8.736;2022-07-29T10:33:59;32.40;71.30
34522;DHT22;25561;48.888;8.736;2022-07-29T10:44:44;31.40;73.40
34522;DHT22;25561;48.888;8.736;2022-07-29T10:47:47;31.20;73.80
34522;DHT22;25561;48.888;8.736;2022-07-29T10:50:56;32.20;73.40
34522;DHT22;25561;48.888;8.736;2022-07-29T10:53:58;33.00;74.10
34522;DHT22;25561;48.888;8.736;2022-07-29T10:57:25;34.80;69.40
34522;DHT22;25561;48.888;8.736;2022-07-29T11:00:50;35.00;67.20
34522;DHT22;25561;48.888;8.736;2022-07-29T11:03:52;34.60;68.80
34522;DHT22;25561;48.888;8.736;2022-07-29T11:07:06;35.30;66.60
34522;DHT22;25561;48.888;8.736;2022-07-29T11:17:05;32.30;71.70
34522;DHT22;25561;48.888;8.736;2022-07-29T11:24:13;31.20;71.00
34522;DHT22;25561;48.888;8.736;2022-07-29T11:27:32;31.60;71.60
34522;DHT22;25561;48.888;8.736;2022-07-29T11:30:48;31.00;73.30
34522;DHT22;25561;48.888;8.736;2022-07-29T11:33:51;30.80;73.40
34522;DHT22;25561;48.888;8.736;2022-07-29T11:40:15;32.30;72.20
34522;DHT22;25561;48.888;8.736;2022-07-29T11:43:45;31.50;72.70
34522;DHT22;25561;48.888;8.736;2022-07-29T11:46:50;31.30;73.20
34522;DHT22;25561;48.888;8.736;2022-07-29T11:49:56;30.40;76.10
34522;DHT22;25561;48.888;8.736;2022-07-29T11:53:01;30.80;75.80
34522;DHT22;25561;48.888;8.736;2022-07-29T11:56:09;31.20;75.30
34522;DHT22;25561;48.888;8.736;2022-07-29T11:59:19;31.70;74.20
34522;DHT22;25561;48.888;8.736;2022-07-29T12:02:21;31.80;72.90
34522;DHT22;25561;48.888;8.736;2022-07-29T12:05:44;31.90;72.40
34522;DHT22;25561;48.888;8.736;2022-07-29T12:08:52;30.80;73.60
34522;DHT22;25561;48.888;8.736;2022-07-29T12:11:57;30.50;76.70
34522;DHT22;25561;48.888;8.736;2022-07-29T12:15:21;30.10;76.20
34522;DHT22;25561;48.888;8.736;2022-07-29T12:19:01;30.10;76.10
34522;DHT22;25561;48.888;8.736;2022-07-29T12:22:04;30.00;76.10
34522;DHT22;25561;48.888;8.736;2022-07-29T12:25:10;29.90;76.90
34522;DHT22;25561;48.888;8.736;2022-07-29T12:28:37;29.50;78.30
34522;DHT22;25561;48.888;8.736;2022-07-29T12:31:40;29.50;78.10
34522;DHT22;25561;48.888;8.736;2022-07-29T12:34:45;29.10;78.40
34522;DHT22;25561;48.888;8.736;2022-07-29T12:37:48;29.20;78.80
34522;DHT22;25561;48.888;8.736;2022-07-29T12:40:53;29.10;78.60
34522;DHT22;25561;48.888;8.736;2022-07-29T12:43:55;28.90;77.90
34522;DHT22;25561;48.888;8.736;2022-07-29T12:47:02;29.20;77.60
34522;DHT22;25561;48.888;8.736;2022-07-29T12:50:13;29.50;78.80
34522;DHT22;25561;48.888;8.736;2022-07-29T12:53:25;29.40;77.10
34522;DHT22;25561;48.888;8.736;2022-07-29T12:56:28;29.40;78.40
34522;DHT22;25561;48.888;8.736;2022-07-29T12:59:43;29.10;77.80
34522;DHT22;25561;48.888;8.736;2022-07-29T13:02:55;28.90;77.80
34522;DHT22;25561;48.888;8.736;2022-07-29T13:05:57;29.10;77.50
34522;DHT22;25561;48.888;8.736;2022-07-29T13:09:04;29.20;76.40
34522;DHT22;25561;48.888;8.736;2022-07-29T13:12:09;29.00;78.10
34522;DHT22;25561;48.888;8.736;2022-07-29T13:15:14;29.20;78.90
34522;DHT22;25561;48.888;8.736;2022-07-29T13:18:33;29.30;79.10
34522;DHT22;25561;48.888;8.736;2022-07-29T13:21:38;29.60;78.30
34522;DHT22;25561;48.888;8.736;2022-07-29T13:24:57;29.80;78.70
34522;DHT22;25561;48.888;8.736;2022-07-29T13:27:59;29.80;78.30
34522;DHT22;25561;48.888;8.736;2022-07-29T13:31:01;29.80;76.40
34522;DHT22;25561;48.888;8.736;2022-07-29T13:34:03;29.70;76.60
34522;DHT22;25561;48.888;8.736;2022-07-29T13:37:05;30.00;75.40
34522;DHT22;25561;48.888;8.736;2022-07-29T13:40:09;30.10;73.80
34522;DHT22;25561;48.888;8.736;2022-07-29T13:43:11;30.30;74.60
34522;DHT22;25561;48.888;8.736;2022-07-29T13:46:13;30.30;73.50
34522;DHT22;25561;48.888;8.736;2022-07-29T13:49:15;30.50;72.90
34522;DHT22;25561;48.888;8.736;2022-07-29T13:52:17;30.20;72.40
34522;DHT22;25561;48.888;8.736;2022-07-29T13:55:19;29.70;73.40
34522;DHT22;25561;48.888;8.736;2022-07-29T13:58:21;30.30;72.10
34522;DHT22;25561;48.888;8.736;2022-07-29T14:01:23;30.50;70.20
34522;DHT22;25561;48.888;8.736;2022-07-29T14:04:26;30.40;69.90
34522;DHT22;25561;48.888;8.736;2022-07-29T14:07:28;30.00;70.60
34522;DHT22;25561;48.888;8.736;2022-07-29T14:10:29;30.00;71.70
34522;DHT22;25561;48.888;8.736;2022-07-29T14:13:31;29.90;69.70
34522;DHT22;25561;48.888;8.736;2022-07-29T14:16:34;29.60;70.60
34522;DHT22;25561;48.888;8.736;2022-07-29T14:19:42;29.10;71.30
34522;DHT22;25561;48.888;8.736;2022-07-29T14:22:44;29.50;71.70
34522;DHT22;25561;48.888;8.736;2022-07-29T14:25:46;29.60;69.90
34522;DHT22;25561;48.888;8.736;2022-07-29T14:28:50;29.80;70.00
34522;DHT22;25561;48.888;8.736;2022-07-29T14:31:51;29.90;71.00
34522;DHT22;25561;48.888;8.736;2022-07-29T14:34:54;29.80;69.70
34522;DHT22;25561;48.888;8.736;2022-07-29T14:37:55;29.40;70.70
34522;DHT22;25561;48.888;8.736;2022-07-29T14:40:57;29.50;70.70
34522;DHT22;25561;48.888;8.736;2022-07-29T14:44:00;29.40;71.60
34522;DHT22;25561;48.888;8.736;2022-07-29T14:47:02;29.60;71.80
34522;DHT22;25561;48.888;8.736;2022-07-29T14:50:09;29.60;70.90
34522;DHT22;25561;48.888;8.736;2022-07-29T14:53:11;29.30;72.80
34522;DHT22;25561;48.888;8.736;2022-07-29T14:56:14;29.50;71.40
34522;DHT22;25561;48.888;8.736;2022-07-29T14:59:36;29.70;71.90
34522;DHT22;25561;48.888;8.736;2022-07-29T15:02:38;29.30;71.40
34522;DHT22;25561;48.888;8.736;2022-07-29T15:06:00;29.70;70.90
34522;DHT22;25561;48.888;8.736;2022-07-29T15:09:02;29.30;72.20
34522;DHT22;25561;48.888;8.736;2022-07-29T15:12:03;29.20;71.90
34522;DHT22;25561;48.888;8.736;2022-07-29T15:15:06;29.40;72.40
34522;DHT22;25561;48.888;8.736;2022-07-29T15:18:08;29.40;72.70
34522;DHT22;25561;48.888;8.736;2022-07-29T15:21:10;29.40;72.20
34522;DHT22;25561;48.888;8.736;2022-07-29T15:24:12;29.20;72.20
34522;DHT22;25561;48.888;8.736;2022-07-29T15:27:14;29.20;71.90
34522;DHT22;25561;48.888;8.736;2022-07-29T15:30:16;29.20;71.80
34522;DHT22;25561;48.888;8.736;2022-07-29T15:33:34;29.10;71.60
34522;DHT22;25561;48.888;8.736;2022-07-29T15:36:35;29.20;71.00
34522;DHT22;25561;48.888;8.736;2022-07-29T15:39:54;29.00;71.70
34522;DHT22;25561;48.888;8.736;2022-07-29T15:43:04;28.70;69.90
34522;DHT22;25561;48.888;8.736;2022-07-29T15:46:07;28.90;70.20
34522;DHT22;25561;48.888;8.736;2022-07-29T15:49:32;28.80;71.20
34522;DHT22;25561;48.888;8.736;2022-07-29T15:52:49;29.00;70.20
34522;DHT22;25561;48.888;8.736;2022-07-29T15:55:51;28.90;70.50
34522;DHT22;25561;48.888;8.736;2022-07-29T15:58:53;28.70;70.60
